sensor_id;sensor_type;location;lat;lon;timestamp;P1;durP1;ratioP1;P2;durP2;ratioP2
5971;SDS011;3012;49.944;8.454;2024-02-21T00:00:17;16.83;;;5.03;;
5971;SDS011;3012;49.944;8.454;2024-02-21T00:02:50;22.37;;;5.30;;
5971;SDS011;3012;49.944;8.454;2024-02-21T00:05:22;15.10;;;5.07;;
5971;SDS011;3012;49.944;8.454;2024-02-21T00:07:53;14.13;;;4.77;;
5971;SDS011;3012;49.944;8.454;2024-02-21T00:10:25;16.10;;;5.70;;
5971;SDS011;3012;49.944;8.454;2024-02-21T00:13:01;13.00;;;5.43;;
5971;SDS011;3012;49.944;8.454;2024-02-21T00:15:34;18.03;;;5.90;;
5971;SDS011;3012;49.944;8.454;2024-02-21T00:18:10;15.33;;;5.80;;
5971;SDS011;3012;49.944;8.454;2024-02-21T00:20:43;11.23;;;5.33;;
5971;SDS011;3012;49.944;8.454;2024-02-21T00:23:13;13.67;;;6.20;;
5971;SDS011;3012;49.944;8.454;2024-02-21T00:25:50;10.70;;;6.13;;
5971;SDS011;3012;49.944;8.454;2024-02-21T00:28:23;13.13;;;5.67;;
5971;SDS011;3012;49.944;8.454;2024-02-21T00:30:59;20.23;;;7.20;;
5971;SDS011;3012;49.944;8.454;2024-02-21T00:33:35;21.10;;;7.47;;
5971;SDS011;3012;49.944;8.454;2024-02-21T00:36:10;22.07;;;7.10;;
5971;SDS011;3012;49.944;8.454;2024-02-21T00:38:43;19.50;;;8.20;;
5971;SDS011;3012;49.944;8.454;2024-02-21T00:41:18;19.87;;;8.17;;
5971;SDS011;3012;49.944;8.454;2024-02-21T00:43:57;27.40;;;7.53;;
5971;SDS011;3012;49.944;8.454;2024-02-21T00:46:32;23.10;;;7.97;;
5971;SDS011;3012;49.944;8.454;2024-02-21T00:49:04;18.07;;;7.87;;
5971;SDS011;3012;49.944;8.454;2024-02-21T00:51:36;19.10;;;8.40;;
5971;SDS011;3012;49.944;8.454;2024-02-21T00:54:11;22.43;;;8.43;;
5971;SDS011;3012;49.944;8.454;2024-02-21T00:56:45;16.33;;;7.40;;
5971;SDS011;3012;49.944;8.454;2024-02-21T00:59:19;19.10;;;7.67;;
5971;SDS011;3012;49.944;8.454;2024-02-21T01:01:59;17.10;;;7.23;;
5971;SDS011;3012;49.944;8.454;2024-02-21T01:04:34;12.90;;;6.77;;
5971;SDS011;3012;49.944;8.454;2024-02-21T01:07:09;21.77;;;7.20;;
5971;SDS011;3012;49.944;8.454;2024-02-21T01:09:42;18.87;;;7.27;;
5971;SDS011;3012;49.944;8.454;2024-02-21T01:12:18;19.80;;;6.90;;
5971;SDS011;3012;49.944;8.454;2024-02-21T01:14:53;23.37;;;8.27;;
5971;SDS011;3012;49.944;8.454;2024-02-21T01:17:30;14.00;;;8.00;;
5971;SDS011;3012;49.944;8.454;2024-02-21T01:20:04;18.70;;;7.63;;
5971;SDS011;3012;49.944;8.454;2024-02-21T01:22:43;20.83;;;7.57;;
5971;SDS011;3012;49.944;8.454;2024-02-21T01:25:25;15.30;;;8.40;;
5971;SDS011;3012;49.944;8.454;2024-02-21T01:27:56;20.53;;;7.93;;
5971;SDS011;3012;49.944;8.454;2024-02-21T01:30:32;20.43;;;8.30;;
5971;SDS011;3012;49.944;8.454;2024-02-21T01:33:07;11.57;;;6.80;;
5971;SDS011;3012;49.944;8.454;2024-02-21T01:35:41;22.30;;;8.57;;
5971;SDS011;3012;49.944;8.454;2024-02-21T01:38:21;18.37;;;7.67;;
5971;SDS011;3012;49.944;8.454;2024-02-21T01:40:57;22.00;;;7.03;;
5971;SDS011;3012;49.944;8.454;2024-02-21T01:43:35;21.40;;;8.07;;
5971;SDS011;3012;49.944;8.454;2024-02-21T01:46:08;18.83;;;7.47;;
5971;SDS011;3012;49.944;8.454;2024-02-21T01:48:47;17.00;;;8.13;;
5971;SDS011;3012;49.944;8.454;2024-02-21T01:51:23;17.20;;;8.67;;
5971;SDS011;3012;49.944;8.454;2024-02-21T01:53:59;12.27;;;7.40;;
5971;SDS011;3012;49.944;8.454;2024-02-21T01:56:32;13.27;;;7.17;;
5971;SDS011;3012;49.944;8.454;2024-02-21T01:59:04;16.07;;;7.83;;
5971;SDS011;3012;49.944;8.454;2024-02-21T02:01:52;15.33;;;8.23;;
5971;SDS011;3012;49.944;8.454;2024-02-21T02:04:32;16.87;;;8.17;;
5971;SDS011;3012;49.944;8.454;2024-02-21T02:07:08;12.97;;;7.33;;
5971;SDS011;3012;49.944;8.454;2024-02-21T02:09:47;16.20;;;7.40;;
5971;SDS011;3012;49.944;8.454;2024-02-21T02:12:22;15.93;;;7.67;;
5971;SDS011;3012;49.944;8.454;2024-02-21T02:15:11;16.10;;;7.27;;
5971;SDS011;3012;49.944;8.454;2024-02-21T02:17:47;13.20;;;7.07;;
5971;SDS011;3012;49.944;8.454;2024-02-21T02:20:24;21.97;;;7.53;;
5971;SDS011;3012;49.944;8.454;2024-02-21T02:23:01;14.93;;;6.77;;
5971;SDS011;3012;49.944;8.454;2024-02-21T02:25:44;19.67;;;7.77;;
5971;SDS011;3012;49.944;8.454;2024-02-21T02:28:24;16.40;;;8.23;;
5971;SDS011;3012;49.944;8.454;2024-02-21T02:31:03;19.20;;;8.47;;
5971;SDS011;3012;49.944;8.454;2024-02-21T02:33:43;16.53;;;7.57;;
5971;SDS011;3012;49.944;8.454;2024-02-21T02:36:23;13.30;;;8.53;;
5971;SDS011;3012;49.944;8.454;2024-02-21T02:38:56;16.10;;;8.80;;
5971;SDS011;3012;49.944;8.454;2024-02-21T02:41:34;17.60;;;8.70;;
5971;SDS011;3012;49.944;8.454;2024-02-21T02:44:15;23.47;;;8.37;;
5971;SDS011;3012;49.944;8.454;2024-02-21T02:46:51;25.77;;;9.33;;
5971;SDS011;3012;49.944;8.454;2024-02-21T02:49:34;20.10;;;8.90;;
5971;SDS011;3012;49.944;8.454;2024-02-21T02:52:15;15.93;;;8.63;;
5971;SDS011;3012;49.944;8.454;2024-02-21T02:54:49;21.23;;;9.47;;
5971;SDS011;3012;49.944;8.454;2024-02-21T02:57:33;14.73;;;8.57;;
5971;SDS011;3012;49.944;8.454;2024-02-21T03:00:15;20.40;;;9.33;;
5971;SDS011;3012;49.944;8.454;2024-02-21T03:02:51;21.73;;;8.80;;
5971;SDS011;3012;49.944;8.454;2024-02-21T03:05:27;17.90;;;8.60;;
5971;SDS011;3012;49.944;8.454;2024-02-21T03:08:02;14.67;;;8.53;;
5971;SDS011;3012;49.944;8.454;2024-02-21T03:10:37;17.23;;;8.47;;
5971;SDS011;3012;49.944;8.454;2024-02-21T03:13:13;16.00;;;9.13;;
5971;SDS011;3012;49.944;8.454;2024-02-21T03:15:53;23.20;;;8.60;;
5971;SDS011;3012;49.944;8.454;2024-02-21T03:18:26;16.53;;;7.90;;
5971;SDS011;3012;49.944;8.454;2024-02-21T03:20:58;16.60;;;6.70;;
5971;SDS011;3012;49.944;8.454;2024-02-21T03:23:31;21.93;;;8.30;;
5971;SDS011;3012;49.944;8.454;2024-02-21T03:26:02;18.70;;;8.73;;
5971;SDS011;3012;49.944;8.454;2024-02-21T03:28:39;22.53;;;9.13;;
5971;SDS011;3012;49.944;8.454;2024-02-21T03:31:19;17.87;;;9.83;;
5971;SDS011;3012;49.944;8.454;2024-02-21T03:33:58;19.33;;;8.80;;
5971;SDS011;3012;49.944;8.454;2024-02-21T03:36:34;20.83;;;9.20;;
5971;SDS011;3012;49.944;8.454;2024-02-21T03:39:06;16.67;;;8.07;;
5971;SDS011;3012;49.944;8.454;2024-02-21T03:41:41;20.07;;;8.20;;
5971;SDS011;3012;49.944;8.454;2024-02-21T03:44:15;13.67;;;8.43;;
5971;SDS011;3012;49.944;8.454;2024-02-21T03:46:47;18.60;;;8.47;;
5971;SDS011;3012;49.944;8.454;2024-02-21T03:49:19;19.83;;;8.07;;
5971;SDS011;3012;49.944;8.454;2024-02-21T03:51:57;17.53;;;7.73;;
5971;SDS011;3012;49.944;8.454;2024-02-21T03:54:30;14.73;;;7.87;;
5971;SDS011;3012;49.944;8.454;2024-02-21T03:57:01;15.83;;;7.20;;
5971;SDS011;3012;49.944;8.454;2024-02-21T03:59:35;15.97;;;8.73;;
5971;SDS011;3012;49.944;8.454;2024-02-21T04:02:11;13.33;;;6.97;;
5971;SDS011;3012;49.944;8.454;2024-02-21T04:04:45;22.20;;;8.03;;
5971;SDS011;3012;49.944;8.454;2024-02-21T04:07:18;20.43;;;7.43;;
5971;SDS011;3012;49.944;8.454;2024-02-21T04:09:54;16.00;;;8.17;;
5971;SDS011;3012;49.944;8.454;2024-02-21T04:12:28;14.33;;;7.43;;
5971;SDS011;3012;49.944;8.454;2024-02-21T04:15:06;11.43;;;7.33;;
5971;SDS011;3012;49.944;8.454;2024-02-21T04:17:38;18.87;;;8.27;;
5971;SDS011;3012;49.944;8.454;2024-02-21T04:20:15;15.63;;;7.13;;
5971;SDS011;3012;49.944;8.454;2024-02-21T04:22:48;10.40;;;5.90;;
5971;SDS011;3012;49.944;8.454;2024-02-21T04:25:20;18.37;;;5.93;;
5971;SDS011;3012;49.944;8.454;2024-02-21T04:27:51;12.60;;;7.10;;
5971;SDS011;3012;49.944;8.454;2024-02-21T04:30:28;16.37;;;8.73;;
5971;SDS011;3012;49.944;8.454;2024-02-21T04:33:03;21.73;;;7.57;;
5971;SDS011;3012;49.944;8.454;2024-02-21T04:35:35;12.80;;;7.03;;
5971;SDS011;3012;49.944;8.454;2024-02-21T04:38:08;15.13;;;7.40;;
5971;SDS011;3012;49.944;8.454;2024-02-21T04:40:40;20.20;;;8.03;;
5971;SDS011;3012;49.944;8.454;2024-02-21T04:43:13;15.90;;;7.47;;
5971;SDS011;3012;49.944;8.454;2024-02-21T04:45:53;19.00;;;7.50;;
5971;SDS011;3012;49.944;8.454;2024-02-21T04:48:32;16.77;;;8.20;;
5971;SDS011;3012;49.944;8.454;2024-02-21T04:51:05;16.87;;;7.13;;
5971;SDS011;3012;49.944;8.454;2024-02-21T04:53:37;18.30;;;7.57;;
5971;SDS011;3012;49.944;8.454;2024-02-21T04:56:13;20.03;;;7.60;;
5971;SDS011;3012;49.944;8.454;2024-02-21T04:58:58;18.63;;;7.77;;
5971;SDS011;3012;49.944;8.454;2024-02-21T05:01:44;25.20;;;8.57;;
5971;SDS011;3012;49.944;8.454;2024-02-21T05:04:24;13.30;;;6.90;;
5971;SDS011;3012;49.944;8.454;2024-02-21T05:07:07;20.43;;;7.90;;
5971;SDS011;3012;49.944;8.454;2024-02-21T05:09:42;19.40;;;7.80;;
5971;SDS011;3012;49.944;8.454;2024-02-21T05:12:13;18.63;;;8.23;;
5971;SDS011;3012;49.944;8.454;2024-02-21T05:14:46;20.93;;;8.57;;
5971;SDS011;3012;49.944;8.454;2024-02-21T05:17:23;18.97;;;7.70;;
5971;SDS011;3012;49.944;8.454;2024-02-21T05:19:55;22.33;;;8.33;;
5971;SDS011;3012;49.944;8.454;2024-02-21T05:22:28;19.90;;;8.03;;
5971;SDS011;3012;49.944;8.454;2024-02-21T05:25:01;14.40;;;7.53;;
5971;SDS011;3012;49.944;8.454;2024-02-21T05:27:34;22.40;;;8.13;;
5971;SDS011;3012;49.944;8.454;2024-02-21T05:30:08;26.60;;;8.87;;
5971;SDS011;3012;49.944;8.454;2024-02-21T05:32:44;19.07;;;8.40;;
5971;SDS011;3012;49.944;8.454;2024-02-21T05:35:24;15.13;;;7.53;;
5971;SDS011;3012;49.944;8.454;2024-02-21T05:37:59;17.33;;;7.53;;
5971;SDS011;3012;49.944;8.454;2024-02-21T05:40:44;22.53;;;8.47;;
5971;SDS011;3012;49.944;8.454;2024-02-21T05:43:18;17.50;;;7.70;;
5971;SDS011;3012;49.944;8.454;2024-02-21T05:45:49;16.10;;;7.17;;
5971;SDS011;3012;49.944;8.454;2024-02-21T05:48:30;19.00;;;7.83;;
5971;SDS011;3012;49.944;8.454;2024-02-21T05:51:06;18.90;;;6.97;;
5971;SDS011;3012;49.944;8.454;2024-02-21T05:53:40;16.20;;;7.27;;
5971;SDS011;3012;49.944;8.454;2024-02-21T05:56:12;18.63;;;7.30;;
5971;SDS011;3012;49.944;8.454;2024-02-21T05:58:46;15.77;;;6.60;;
5971;SDS011;3012;49.944;8.454;2024-02-21T06:01:17;20.43;;;7.10;;
5971;SDS011;3012;49.944;8.454;2024-02-21T06:03:50;15.93;;;7.30;;
5971;SDS011;3012;49.944;8.454;2024-02-21T06:06:20;17.33;;;6.67;;
5971;SDS011;3012;49.944;8.454;2024-02-21T06:08:51;16.33;;;7.77;;
5971;SDS011;3012;49.944;8.454;2024-02-21T06:11:21;13.27;;;7.17;;
5971;SDS011;3012;49.944;8.454;2024-02-21T06:13:53;16.13;;;7.97;;
5971;SDS011;3012;49.944;8.454;2024-02-21T06:16:23;21.93;;;7.43;;
5971;SDS011;3012;49.944;8.454;2024-02-21T06:18:58;14.17;;;6.83;;
5971;SDS011;3012;49.944;8.454;2024-02-21T06:21:31;20.57;;;7.07;;
5971;SDS011;3012;49.944;8.454;2024-02-21T06:24:02;13.03;;;6.23;;
5971;SDS011;3012;49.944;8.454;2024-02-21T06:26:33;20.37;;;8.03;;
5971;SDS011;3012;49.944;8.454;2024-02-21T06:29:04;15.73;;;7.27;;
5971;SDS011;3012;49.944;8.454;2024-02-21T06:31:35;20.63;;;7.90;;
5971;SDS011;3012;49.944;8.454;2024-02-21T06:34:08;19.33;;;7.57;;
5971;SDS011;3012;49.944;8.454;2024-02-21T06:36:39;10.30;;;6.73;;
5971;SDS011;3012;49.944;8.454;2024-02-21T06:39:11;13.67;;;7.50;;
5971;SDS011;3012;49.944;8.454;2024-02-21T06:41:41;9.83;;;6.67;;
5971;SDS011;3012;49.944;8.454;2024-02-21T06:44:13;9.10;;;6.40;;
5971;SDS011;3012;49.944;8.454;2024-02-21T06:46:46;16.83;;;7.47;;
5971;SDS011;3012;49.944;8.454;2024-02-21T06:49:19;17.67;;;6.80;;
5971;SDS011;3012;49.944;8.454;2024-02-21T06:51:51;14.00;;;6.53;;
5971;SDS011;3012;49.944;8.454;2024-02-21T06:54:23;20.77;;;6.73;;
5971;SDS011;3012;49.944;8.454;2024-02-21T06:56:53;14.33;;;5.90;;
5971;SDS011;3012;49.944;8.454;2024-02-21T06:59:23;16.37;;;7.13;;
5971;SDS011;3012;49.944;8.454;2024-02-21T07:01:53;23.03;;;7.07;;
5971;SDS011;3012;49.944;8.454;2024-02-21T07:04:25;13.10;;;7.00;;
5971;SDS011;3012;49.944;8.454;2024-02-21T07:06:56;10.00;;;5.70;;
5971;SDS011;3012;49.944;8.454;2024-02-21T07:09:27;10.60;;;6.07;;
5971;SDS011;3012;49.944;8.454;2024-02-21T07:11:59;15.67;;;7.17;;
5971;SDS011;3012;49.944;8.454;2024-02-21T07:14:29;18.47;;;5.90;;
5971;SDS011;3012;49.944;8.454;2024-02-21T07:16:59;15.10;;;5.10;;
5971;SDS011;3012;49.944;8.454;2024-02-21T07:19:33;9.60;;;4.87;;
5971;SDS011;3012;49.944;8.454;2024-02-21T07:22:06;12.17;;;4.67;;
5971;SDS011;3012;49.944;8.454;2024-02-21T07:24:37;12.20;;;5.63;;
5971;SDS011;3012;49.944;8.454;2024-02-21T07:27:08;10.73;;;4.63;;
5971;SDS011;3012;49.944;8.454;2024-02-21T07:29:40;15.03;;;4.90;;
5971;SDS011;3012;49.944;8.454;2024-02-21T07:32:14;14.13;;;5.07;;
5971;SDS011;3012;49.944;8.454;2024-02-21T07:34:46;8.23;;;4.73;;
5971;SDS011;3012;49.944;8.454;2024-02-21T07:37:17;11.27;;;4.50;;
5971;SDS011;3012;49.944;8.454;2024-02-21T07:39:49;16.87;;;5.03;;
5971;SDS011;3012;49.944;8.454;2024-02-21T07:42:20;8.23;;;4.20;;
5971;SDS011;3012;49.944;8.454;2024-02-21T07:44:51;17.83;;;4.53;;
5971;SDS011;3012;49.944;8.454;2024-02-21T07:47:21;12.90;;;3.90;;
5971;SDS011;3012;49.944;8.454;2024-02-21T07:49:55;14.43;;;4.27;;
5971;SDS011;3012;49.944;8.454;2024-02-21T07:52:25;13.13;;;4.40;;
5971;SDS011;3012;49.944;8.454;2024-02-21T07:54:55;12.80;;;3.83;;
5971;SDS011;3012;49.944;8.454;2024-02-21T07:57:24;11.63;;;4.23;;
5971;SDS011;3012;49.944;8.454;2024-02-21T07:59:56;11.03;;;3.67;;
5971;SDS011;3012;49.944;8.454;2024-02-21T08:02:29;9.10;;;3.60;;
5971;SDS011;3012;49.944;8.454;2024-02-21T08:05:01;13.37;;;3.93;;
5971;SDS011;3012;49.944;8.454;2024-02-21T08:07:33;16.97;;;4.43;;
5971;SDS011;3012;49.944;8.454;2024-02-21T08:10:03;6.60;;;4.00;;
5971;SDS011;3012;49.944;8.454;2024-02-21T08:12:35;11.30;;;3.53;;
5971;SDS011;3012;49.944;8.454;2024-02-21T08:15:05;10.70;;;4.33;;
5971;SDS011;3012;49.944;8.454;2024-02-21T08:17:38;14.43;;;3.83;;
5971;SDS011;3012;49.944;8.454;2024-02-21T08:20:12;13.40;;;4.03;;
5971;SDS011;3012;49.944;8.454;2024-02-21T08:22:44;8.40;;;3.23;;
5971;SDS011;3012;49.944;8.454;2024-02-21T08:25:16;7.53;;;3.90;;
5971;SDS011;3012;49.944;8.454;2024-02-21T08:27:46;9.87;;;3.43;;
5971;SDS011;3012;49.944;8.454;2024-02-21T08:30:16;14.40;;;3.57;;
5971;SDS011;3012;49.944;8.454;2024-02-21T08:32:47;10.10;;;3.20;;
5971;SDS011;3012;49.944;8.454;2024-02-21T08:35:21;9.30;;;3.10;;
5971;SDS011;3012;49.944;8.454;2024-02-21T08:37:52;12.47;;;3.33;;
5971;SDS011;3012;49.944;8.454;2024-02-21T08:40:23;3.27;;;3.07;;
5971;SDS011;3012;49.944;8.454;2024-02-21T08:42:55;12.57;;;2.70;;
5971;SDS011;3012;49.944;8.454;2024-02-21T08:45:27;11.30;;;3.30;;
5971;SDS011;3012;49.944;8.454;2024-02-21T08:47:57;12.80;;;3.00;;
5971;SDS011;3012;49.944;8.454;2024-02-21T08:50:30;7.60;;;3.20;;
5971;SDS011;3012;49.944;8.454;2024-02-21T08:53:00;6.97;;;3.07;;
5971;SDS011;3012;49.944;8.454;2024-02-21T08:55:31;10.97;;;3.20;;
5971;SDS011;3012;49.944;8.454;2024-02-21T08:58:05;9.63;;;3.20;;
5971;SDS011;3012;49.944;8.454;2024-02-21T09:00:36;11.53;;;3.43;;
5971;SDS011;3012;49.944;8.454;2024-02-21T09:03:07;11.57;;;3.80;;
5971;SDS011;3012;49.944;8.454;2024-02-21T09:05:39;15.23;;;3.70;;
5971;SDS011;3012;49.944;8.454;2024-02-21T09:08:09;9.63;;;3.83;;
5971;SDS011;3012;49.944;8.454;2024-02-21T09:10:41;7.78;;;2.55;;
5971;SDS011;3012;49.944;8.454;2024-02-21T09:13:12;12.13;;;3.38;;
5971;SDS011;3012;49.944;8.454;2024-02-21T09:15:43;5.55;;;3.10;;
5971;SDS011;3012;49.944;8.454;2024-02-21T09:18:14;9.10;;;3.15;;
5971;SDS011;3012;49.944;8.454;2024-02-21T09:20:47;8.80;;;2.77;;
5971;SDS011;3012;49.944;8.454;2024-02-21T09:23:20;11.52;;;3.10;;
5971;SDS011;3012;49.944;8.454;2024-02-21T09:25:52;5.72;;;2.85;;
5971;SDS011;3012;49.944;8.454;2024-02-21T09:28:23;7.60;;;2.65;;
5971;SDS011;3012;49.944;8.454;2024-02-21T09:30:55;12.25;;;3.50;;
5971;SDS011;3012;49.944;8.454;2024-02-21T09:33:26;9.70;;;2.78;;
5971;SDS011;3012;49.944;8.454;2024-02-21T09:36:01;9.70;;;3.05;;
5971;SDS011;3012;49.944;8.454;2024-02-21T09:38:33;12.43;;;3.42;;
5971;SDS011;3012;49.944;8.454;2024-02-21T09:41:09;7.78;;;2.67;;
5971;SDS011;3012;49.944;8.454;2024-02-21T09:43:51;9.27;;;3.90;;
5971;SDS011;3012;49.944;8.454;2024-02-21T09:46:24;7.85;;;3.22;;
5971;SDS011;3012;49.944;8.454;2024-02-21T09:49:07;10.30;;;2.97;;
5971;SDS011;3012;49.944;8.454;2024-02-21T09:51:53;6.60;;;2.45;;
5971;SDS011;3012;49.944;8.454;2024-02-21T09:54:25;10.98;;;2.80;;
5971;SDS011;3012;49.944;8.454;2024-02-21T09:56:57;5.43;;;2.78;;
5971;SDS011;3012;49.944;8.454;2024-02-21T09:59:30;5.30;;;2.55;;
5971;SDS011;3012;49.944;8.454;2024-02-21T10:02:01;7.88;;;2.22;;
5971;SDS011;3012;49.944;8.454;2024-02-21T10:04:32;10.57;;;2.65;;
5971;SDS011;3012;49.944;8.454;2024-02-21T10:07:06;11.15;;;3.25;;
5971;SDS011;3012;49.944;8.454;2024-02-21T10:09:37;6.15;;;2.38;;
5971;SDS011;3012;49.944;8.454;2024-02-21T10:12:10;8.70;;;2.42;;
5971;SDS011;3012;49.944;8.454;2024-02-21T10:14:42;10.38;;;2.90;;
5971;SDS011;3012;49.944;8.454;2024-02-21T10:17:15;5.85;;;2.78;;
5971;SDS011;3012;49.944;8.454;2024-02-21T10:19:47;6.88;;;2.72;;
5971;SDS011;3012;49.944;8.454;2024-02-21T10:22:20;9.50;;;2.65;;
5971;SDS011;3012;49.944;8.454;2024-02-21T10:24:53;14.40;;;3.70;;
5971;SDS011;3012;49.944;8.454;2024-02-21T10:27:24;10.80;;;3.00;;
5971;SDS011;3012;49.944;8.454;2024-02-21T10:29:55;12.88;;;3.10;;
5971;SDS011;3012;49.944;8.454;2024-02-21T10:32:28;10.57;;;3.28;;
5971;SDS011;3012;49.944;8.454;2024-02-21T10:35:01;14.32;;;3.70;;
5971;SDS011;3012;49.944;8.454;2024-02-21T10:37:35;7.70;;;2.90;;
5971;SDS011;3012;49.944;8.454;2024-02-21T10:40:06;11.00;;;3.70;;
5971;SDS011;3012;49.944;8.454;2024-02-21T10:42:40;11.38;;;3.88;;
5971;SDS011;3012;49.944;8.454;2024-02-21T10:45:20;12.90;;;3.30;;
5971;SDS011;3012;49.944;8.454;2024-02-21T10:47:56;16.83;;;3.92;;
5971;SDS011;3012;49.944;8.454;2024-02-21T10:50:39;8.25;;;2.45;;
5971;SDS011;3012;49.944;8.454;2024-02-21T10:53:32;10.05;;;2.97;;
5971;SDS011;3012;49.944;8.454;2024-02-21T10:56:13;7.63;;;3.20;;
5971;SDS011;3012;49.944;8.454;2024-02-21T10:58:50;10.65;;;3.10;;
5971;SDS011;3012;49.944;8.454;2024-02-21T11:01:26;13.60;;;3.22;;
5971;SDS011;3012;49.944;8.454;2024-02-21T11:03:59;11.07;;;3.42;;
5971;SDS011;3012;49.944;8.454;2024-02-21T11:06:32;8.40;;;3.15;;
5971;SDS011;3012;49.944;8.454;2024-02-21T11:09:09;13.57;;;3.40;;
5971;SDS011;3012;49.944;8.454;2024-02-21T11:11:43;11.60;;;3.40;;
5971;SDS011;3012;49.944;8.454;2024-02-21T11:14:17;9.32;;;2.67;;
5971;SDS011;3012;49.944;8.454;2024-02-21T11:16:48;5.88;;;2.63;;
5971;SDS011;3012;49.944;8.454;2024-02-21T11:19:21;9.05;;;3.22;;
5971;SDS011;3012;49.944;8.454;2024-02-21T11:21:54;5.38;;;2.63;;
5971;SDS011;3012;49.944;8.454;2024-02-21T11:24:32;13.25;;;2.88;;
5971;SDS011;3012;49.944;8.454;2024-02-21T11:27:08;7.65;;;2.35;;
5971;SDS011;3012;49.944;8.454;2024-02-21T11:29:40;9.57;;;2.80;;
5971;SDS011;3012;49.944;8.454;2024-02-21T11:32:14;8.68;;;2.33;;
5971;SDS011;3012;49.944;8.454;2024-02-21T11:34:53;11.65;;;4.20;;
5971;SDS011;3012;49.944;8.454;2024-02-21T11:37:24;8.27;;;3.53;;
5971;SDS011;3012;49.944;8.454;2024-02-21T11:39:57;10.68;;;3.60;;
5971;SDS011;3012;49.944;8.454;2024-02-21T11:42:29;12.93;;;3.72;;
5971;SDS011;3012;49.944;8.454;2024-02-21T11:45:00;15.13;;;5.07;;
5971;SDS011;3012;49.944;8.454;2024-02-21T11:47:32;9.70;;;3.22;;
5971;SDS011;3012;49.944;8.454;2024-02-21T11:50:02;11.38;;;3.70;;
5971;SDS011;3012;49.944;8.454;2024-02-21T11:52:33;9.07;;;3.67;;
5971;SDS011;3012;49.944;8.454;2024-02-21T11:55:05;11.90;;;3.10;;
5971;SDS011;3012;49.944;8.454;2024-02-21T11:57:38;10.32;;;3.15;;
5971;SDS011;3012;49.944;8.454;2024-02-21T12:00:15;11.70;;;3.63;;
5971;SDS011;3012;49.944;8.454;2024-02-21T12:02:48;10.18;;;3.03;;
5971;SDS011;3012;49.944;8.454;2024-02-21T12:05:20;12.35;;;3.38;;
5971;SDS011;3012;49.944;8.454;2024-02-21T12:07:51;10.02;;;3.30;;
5971;SDS011;3012;49.944;8.454;2024-02-21T12:10:24;11.48;;;3.13;;
5971;SDS011;3012;49.944;8.454;2024-02-21T12:13:04;10.05;;;2.70;;
5971;SDS011;3012;49.944;8.454;2024-02-21T12:15:35;10.07;;;3.55;;
5971;SDS011;3012;49.944;8.454;2024-02-21T12:18:08;7.70;;;2.42;;
5971;SDS011;3012;49.944;8.454;2024-02-21T12:20:40;12.25;;;3.25;;
5971;SDS011;3012;49.944;8.454;2024-02-21T12:23:12;9.23;;;3.63;;
5971;SDS011;3012;49.944;8.454;2024-02-21T12:25:45;8.82;;;2.70;;
5971;SDS011;3012;49.944;8.454;2024-02-21T12:28:15;10.55;;;4.97;;
5971;SDS011;3012;49.944;8.454;2024-02-21T12:30:47;8.85;;;4.05;;
5971;SDS011;3012;49.944;8.454;2024-02-21T12:33:18;7.93;;;2.83;;
5971;SDS011;3012;49.944;8.454;2024-02-21T12:35:48;7.20;;;2.80;;
5971;SDS011;3012;49.944;8.454;2024-02-21T12:38:19;5.15;;;2.80;;
5971;SDS011;3012;49.944;8.454;2024-02-21T12:40:51;8.82;;;3.40;;
5971;SDS011;3012;49.944;8.454;2024-02-21T12:43:22;8.77;;;3.13;;
5971;SDS011;3012;49.944;8.454;2024-02-21T12:45:52;6.88;;;2.63;;
5971;SDS011;3012;49.944;8.454;2024-02-21T12:48:22;11.48;;;3.42;;
5971;SDS011;3012;49.944;8.454;2024-02-21T12:50:53;16.05;;;4.13;;
5971;SDS011;3012;49.944;8.454;2024-02-21T12:53:25;10.95;;;2.53;;
5971;SDS011;3012;49.944;8.454;2024-02-21T12:56:01;10.65;;;2.85;;
5971;SDS011;3012;49.944;8.454;2024-02-21T12:58:38;8.90;;;2.28;;
5971;SDS011;3012;49.944;8.454;2024-02-21T13:01:12;9.43;;;3.28;;
5971;SDS011;3012;49.944;8.454;2024-02-21T13:03:43;8.35;;;2.75;;
5971;SDS011;3012;49.944;8.454;2024-02-21T13:06:15;11.00;;;2.90;;
5971;SDS011;3012;49.944;8.454;2024-02-21T13:08:46;6.25;;;2.35;;
5971;SDS011;3012;49.944;8.454;2024-02-21T13:11:17;6.38;;;1.75;;
5971;SDS011;3012;49.944;8.454;2024-02-21T13:13:48;10.90;;;2.47;;
5971;SDS011;3012;49.944;8.454;2024-02-21T13:16:18;10.15;;;2.40;;
5971;SDS011;3012;49.944;8.454;2024-02-21T13:18:50;4.63;;;2.20;;
5971;SDS011;3012;49.944;8.454;2024-02-21T13:21:21;8.13;;;2.50;;
5971;SDS011;3012;49.944;8.454;2024-02-21T13:23:51;10.65;;;2.15;;
5971;SDS011;3012;49.944;8.454;2024-02-21T13:26:24;7.57;;;1.73;;
5971;SDS011;3012;49.944;8.454;2024-02-21T13:28:55;7.07;;;1.52;;
5971;SDS011;3012;49.944;8.454;2024-02-21T13:31:25;6.30;;;1.67;;
5971;SDS011;3012;49.944;8.454;2024-02-21T13:33:57;6.38;;;1.75;;
5971;SDS011;3012;49.944;8.454;2024-02-21T13:36:28;8.52;;;1.63;;
5971;SDS011;3012;49.944;8.454;2024-02-21T13:38:59;17.10;;;6.25;;
5971;SDS011;3012;49.944;8.454;2024-02-21T13:44:37;8.88;;;2.90;;
5971;SDS011;3012;49.944;8.454;2024-02-21T13:47:08;4.78;;;1.80;;
5971;SDS011;3012;49.944;8.454;2024-02-21T13:49:39;8.43;;;2.22;;
5971;SDS011;3012;49.944;8.454;2024-02-21T13:52:10;6.53;;;1.30;;
5971;SDS011;3012;49.944;8.454;2024-02-21T13:54:42;3.63;;;1.52;;
5971;SDS011;3012;49.944;8.454;2024-02-21T13:57:14;7.88;;;1.30;;
5971;SDS011;3012;49.944;8.454;2024-02-21T13:59:44;3.40;;;1.10;;
5971;SDS011;3012;49.944;8.454;2024-02-21T14:02:16;3.65;;;1.23;;
5971;SDS011;3012;49.944;8.454;2024-02-21T14:04:47;9.60;;;1.35;;
5971;SDS011;3012;49.944;8.454;2024-02-21T14:07:17;6.10;;;1.25;;
5971;SDS011;3012;49.944;8.454;2024-02-21T14:09:47;6.97;;;1.58;;
5971;SDS011;3012;49.944;8.454;2024-02-21T14:12:19;10.50;;;2.33;;
5971;SDS011;3012;49.944;8.454;2024-02-21T14:14:52;2.95;;;1.45;;
5971;SDS011;3012;49.944;8.454;2024-02-21T14:17:26;7.75;;;2.33;;
5971;SDS011;3012;49.944;8.454;2024-02-21T14:19:57;12.55;;;2.30;;
5971;SDS011;3012;49.944;8.454;2024-02-21T14:22:28;8.82;;;2.10;;
5971;SDS011;3012;49.944;8.454;2024-02-21T14:24:59;7.65;;;2.00;;
5971;SDS011;3012;49.944;8.454;2024-02-21T14:27:31;12.35;;;2.15;;
5971;SDS011;3012;49.944;8.454;2024-02-21T14:30:04;9.88;;;2.75;;
5971;SDS011;3012;49.944;8.454;2024-02-21T14:32:38;7.97;;;2.10;;
5971;SDS011;3012;49.944;8.454;2024-02-21T14:35:13;7.20;;;2.13;;
5971;SDS011;3012;49.944;8.454;2024-02-21T14:37:45;10.45;;;2.85;;
5971;SDS011;3012;49.944;8.454;2024-02-21T14:40:17;8.68;;;1.98;;
5971;SDS011;3012;49.944;8.454;2024-02-21T14:42:50;5.80;;;2.22;;
5971;SDS011;3012;49.944;8.454;2024-02-21T14:45:21;7.47;;;2.97;;
5971;SDS011;3012;49.944;8.454;2024-02-21T14:47:51;9.00;;;2.20;;
5971;SDS011;3012;49.944;8.454;2024-02-21T14:50:23;8.82;;;2.72;;
5971;SDS011;3012;49.944;8.454;2024-02-21T14:52:55;5.07;;;2.10;;
5971;SDS011;3012;49.944;8.454;2024-02-21T14:55:27;8.45;;;2.08;;
5971;SDS011;3012;49.944;8.454;2024-02-21T14:58:00;7.18;;;1.95;;
5971;SDS011;3012;49.944;8.454;2024-02-21T15:00:31;7.28;;;2.15;;
5971;SDS011;3012;49.944;8.454;2024-02-21T15:03:04;5.25;;;1.65;;
5971;SDS011;3012;49.944;8.454;2024-02-21T15:05:34;3.83;;;1.98;;
5971;SDS011;3012;49.944;8.454;2024-02-21T15:08:04;7.65;;;1.50;;
5971;SDS011;3012;49.944;8.454;2024-02-21T15:10:40;4.80;;;1.33;;
5971;SDS011;3012;49.944;8.454;2024-02-21T15:13:14;7.28;;;1.25;;
5971;SDS011;3012;49.944;8.454;2024-02-21T15:15:45;4.28;;;1.42;;
5971;SDS011;3012;49.944;8.454;2024-02-21T15:18:17;5.15;;;1.35;;
5971;SDS011;3012;49.944;8.454;2024-02-21T15:20:49;8.20;;;3.90;;
5971;SDS011;3012;49.944;8.454;2024-02-21T15:23:19;10.07;;;3.50;;
5971;SDS011;3012;49.944;8.454;2024-02-21T15:25:52;6.60;;;2.30;;
5971;SDS011;3012;49.944;8.454;2024-02-21T15:28:24;6.50;;;2.33;;
5971;SDS011;3012;49.944;8.454;2024-02-21T15:30:56;6.53;;;2.65;;
5971;SDS011;3012;49.944;8.454;2024-02-21T15:33:26;5.82;;;2.25;;
5971;SDS011;3012;49.944;8.454;2024-02-21T15:36:00;5.00;;;2.05;;
5971;SDS011;3012;49.944;8.454;2024-02-21T15:38:31;6.25;;;2.17;;
5971;SDS011;3012;49.944;8.454;2024-02-21T15:41:01;9.85;;;2.60;;
5971;SDS011;3012;49.944;8.454;2024-02-21T15:43:35;9.57;;;2.67;;
5971;SDS011;3012;49.944;8.454;2024-02-21T15:46:06;11.43;;;2.45;;